Time;durP1;ratioP1;P1;durP2;ratioP2;P2;SDS_P1;SDS_P2;PMS_P1;PMS_P2;Temp;Humidity;BMP_temperature;BMP_pressure;BME280_temperature;BME280_humidity;BME280_pressure;Samples;Min_cycle;Max_cycle;Signal;HPM_P1;HPM_P2
2022/10/05 00:03:41;;;;;;;72.15;27.17;;;;;;;7.91;97.89;99929.63;8252861;28;20097;-77
2022/10/05 00:07:42;;;;;;;71.25;29.55;;;;;;;7.91;98.33;99935.00;8249309;28;20058;-77
2022/10/05 00:11:44;;;;;;;48.00;20.50;;;;;;;7.95;98.20;99936.06;8247704;28;20047;-77
2022/10/05 00:15:45;;;;;;;47.65;22.08;;;;;;;7.92;98.22;99915.13;8246488;28;20453;-77
2022/10/05 00:19:50;;;;;;;50.45;21.88;;;;;;;7.95;97.94;99914.56;8240937;28;20045;-76
2022/10/05 00:23:55;;;;;;;46.88;21.65;;;;;;;7.96;97.91;99905.41;8238421;28;20046;-77
2022/10/05 00:27:58;;;;;;;40.17;19.95;;;;;;;7.96;98.39;99908.13;8247797;28;20043;-77
2022/10/05 00:31:59;;;;;;;43.33;21.70;;;;;;;7.97;98.22;99893.59;8259688;28;20378;-76
2022/10/05 00:36:00;;;;;;;40.80;20.92;;;;;;;7.98;98.54;99897.88;8246112;28;20058;-77
2022/10/05 00:40:02;;;;;;;50.45;18.33;;;;;;;8.00;98.72;99878.78;8251832;28;20509;-77
2022/10/05 00:44:23;;;;;;;41.33;18.77;;;;;;;8.02;98.87;99893.56;8264779;28;20186;-77
2022/10/05 00:48:31;;;;;;;37.40;18.38;;;;;;;8.02;98.90;99898.97;8256001;28;20136;-77
2022/10/05 00:52:47;;;;;;;39.60;19.85;;;;;;;8.02;99.01;99898.97;8242030;28;20074;-77
2022/10/05 00:57:15;;;;;;;49.83;20.83;;;;;;;8.01;98.89;99886.59;8264232;28;20051;-77
2022/10/05 01:01:18;;;;;;;55.78;21.83;;;;;;;8.00;98.90;99884.97;8229974;28;20055;-77
2022/10/05 01:05:25;;;;;;;43.75;20.95;;;;;;;8.01;99.00;99870.44;8211533;28;20043;-77
2022/10/05 01:09:31;;;;;;;41.80;20.40;;;;;;;7.99;99.09;99877.97;8229370;28;20569;-77
2022/10/05 01:13:51;;;;;;;47.08;21.95;;;;;;;7.97;99.15;99869.38;8230161;28;20066;-77
2022/10/05 01:18:21;;;;;;;46.65;24.17;;;;;;;7.96;99.50;99878.53;8229293;28;20066;-77
2022/10/05 01:22:53;;;;;;;48.70;22.90;;;;;;;7.93;99.66;99868.28;8230178;28;20060;-77
2022/10/05 01:27:16;;;;;;;40.50;22.05;;;;;;;7.93;99.43;99867.53;8230017;28;20043;-77
2022/10/05 01:31:34;;;;;;;43.72;22.67;;;;;;;7.92;99.67;99866.72;8231711;28;20043;-77
2022/10/05 01:36:14;;;;;;;58.63;22.58;;;;;;;7.89;99.80;99844.91;8212281;28;20101;-77
2022/10/05 01:40:53;;;;;;;45.03;20.95;;;;;;;7.88;99.76;99846.78;8157510;28;20055;-77
2022/10/05 01:45:21;;;;;;;36.63;20.37;;;;;;;7.85;99.79;99850.03;8176171;28;20055;-77
2022/10/05 01:49:37;;;;;;;41.63;20.25;;;;;;;7.83;100.00;99852.19;8158418;28;20299;-77
2022/10/05 01:53:47;;;;;;;38.97;20.08;;;;;;;7.75;100.00;99855.44;8186362;28;20066;-77
2022/10/05 01:58:10;;;;;;;41.85;19.65;;;;;;;7.70;100.00;99855.44;8186198;29;20475;-77
2022/10/05 02:02:22;;;;;;;40.08;19.77;;;;;;;7.70;100.00;99851.94;8184485;28;20142;-77
2022/10/05 02:06:26;;;;;;;41.03;18.85;;;;;;;7.69;100.00;99851.16;8186204;28;20178;-77
2022/10/05 02:10:35;;;;;;;39.72;19.15;;;;;;;7.58;100.00;99865.66;8164788;28;20063;-77
2022/10/05 02:14:42;;;;;;;42.35;19.05;;;;;;;7.60;100.00;99868.91;8151571;28;20131;-77
2022/10/05 02:18:52;;;;;;;43.65;18.88;;;;;;;7.61;100.00;99859.78;8248493;28;20483;-77
2022/10/05 02:23:03;;;;;;;33.72;18.10;;;;;;;7.61;100.00;99859.78;8257955;28;20057;-76
2022/10/05 02:27:05;;;;;;;30.77;16.75;;;;;;;7.56;100.00;99862.47;8216596;28;20570;-77
2022/10/05 02:31:28;;;;;;;31.13;16.35;;;;;;;7.58;100.00;99861.09;8249873;28;20054;-77
2022/10/05 02:35:29;;;;;;;34.67;16.73;;;;;;;7.60;100.00;99858.16;8228571;28;20051;-76
2022/10/05 02:40:01;;;;;;;36.75;16.70;;;;;;;7.62;100.00;99851.41;8241207;28;20043;-76
2022/10/05 02:44:08;;;;;;;38.17;17.33;;;;;;;7.63;100.00;99852.22;8252849;28;20046;-77
2022/10/05 02:48:43;;;;;;;34.10;16.88;;;;;;;7.64;100.00;99853.84;8264585;28;20065;-77
2022/10/05 02:53:02;;;;;;;34.22;16.88;;;;;;;7.64;100.00;99843.09;8224132;28;20057;-77
2022/10/05 02:57:03;;;;;;;;;;;;;;;7.59;100.00;99851.97;8248872;28;20050;-77
2022/10/05 03:01:20;;;;;;;29.02;15.30;;;;;;;7.56;100.00;99836.38;8244232;28;20028;-77
2022/10/05 03:05:31;;;;;;;30.25;14.57;;;;;;;7.54;100.00;99843.09;8250199;28;20057;-76
2022/10/05 03:09:38;;;;;;;30.38;14.20;;;;;;;7.52;100.00;99834.50;8248789;28;20046;-77
2022/10/05 03:14:17;;;;;;;37.03;15.27;;;;;;;7.52;100.00;99834.50;8245154;28;20038;-77
2022/10/05 03:18:49;;;;;;;31.38;14.65;;;;;;;7.52;100.00;99834.50;8257098;28;20129;-77
2022/10/05 03:22:57;;;;;;;29.80;14.57;;;;;;;7.53;100.00;99822.69;8255896;28;20050;-77
2022/10/05 03:27:21;;;;;;;29.05;14.30;;;;;;;7.55;100.00;99823.22;8247347;28;20085;-76
2022/10/05 03:31:52;;;;;;;32.72;14.00;;;;;;;7.56;100.00;99832.91;8248381;28;20065;-76
2022/10/05 03:36:20;;;;;;;31.58;15.68;;;;;;;7.57;100.00;99837.97;8250368;28;20442;-76
2022/10/05 03:40:53;;;;;;;31.67;14.27;;;;;;;7.59;100.00;99830.47;8242558;28;20054;-76
2022/10/05 03:44:57;;;;;;;27.25;13.25;;;;;;;7.60;100.00;99825.91;8193481;28;20063;-77
2022/10/05 03:49:13;;;;;;;26.00;12.77;;;;;;;7.58;100.00;99823.47;8194875;28;20059;-77
2022/10/05 03:53:18;;;;;;;27.73;13.25;;;;;;;7.61;100.00;99822.13;8194488;28;20550;-77
2022/10/05 03:57:22;;;;;;;31.33;13.23;;;;;;;7.63;100.00;99825.34;8175987;28;20104;-77
2022/10/05 04:01:32;;;;;;;28.10;13.25;;;;;;;7.65;100.00;99828.56;8184919;28;20043;-76
2022/10/05 04:05:49;;;;;;;22.80;12.48;;;;;;;7.65;100.00;99828.56;8184778;28;20050;-77
2022/10/05 04:09:52;;;;;;;25.60;12.82;;;;;;;7.65;100.00;99823.19;8201119;28;20150;-77
2022/10/05 04:14:06;;;;;;;24.05;12.63;;;;;;;7.67;100.00;99815.66;8184055;28;20059;-77
2022/10/05 04:18:25;;;;;;;23.60;11.50;;;;;;;7.68;100.00;99822.66;8187432;28;20509;-77
2022/10/05 04:22:49;;;;;;;26.20;12.30;;;;;;;7.69;100.00;99813.50;8246247;28;20058;-77
2022/10/05 04:26:54;;;;;;;25.42;12.60;;;;;;;7.69;100.00;99802.75;8197701;28;20079;-77
2022/10/05 04:30:55;;;;;;;23.55;12.05;;;;;;;7.69;100.00;99792.00;8198932;28;20514;-77
2022/10/05 04:35:17;;;;;;;24.73;12.93;;;;;;;7.69;100.00;99773.19;8199530;28;20051;-76
2022/10/05 04:39:27;;;;;;;23.17;12.77;;;;;;;7.70;100.00;99777.47;8199242;28;20051;-77
2022/10/05 04:43:28;;;;;;;40.97;21.27;;;;;;;7.69;100.00;99775.88;8148523;29;20047;-77
2022/10/05 04:47:59;;;;;;;37.75;17.88;;;;;;;7.68;100.00;99790.38;8200371;28;20433;-76
2022/10/05 04:52:35;;;;;;;42.03;20.08;;;;;;;7.69;100.00;99792.00;8200149;28;20059;-76
2022/10/05 04:57:00;;;;;;;36.60;21.25;;;;;;;7.69;100.00;99800.06;8202366;28;20519;-76
2022/10/05 05:01:10;;;;;;;41.53;25.42;;;;;;;7.69;100.00;99797.38;8201948;28;20528;-76
2022/10/05 05:05:37;;;;;;;42.13;20.58;;;;;;;7.66;100.00;99792.56;8260594;28;20077;-77
2022/10/05 05:10:02;;;;;;;97.78;34.38;;;;;;;7.67;100.00;99810.28;8198276;28;20139;-77
2022/10/05 05:14:41;;;;;;;69.90;28.90;;;;;;;7.67;100.00;99809.50;8198705;28;20051;-76
2022/10/05 05:19:17;;;;;;;43.95;21.95;;;;;;;7.65;100.00;99801.69;8150872;29;20244;-76
2022/10/05 05:23:41;;;;;;;46.05;19.35;;;;;;;7.64;100.00;99794.69;8202338;28;20049;-77
2022/10/05 05:27:48;;;;;;;29.00;14.90;;;;;;;7.60;100.00;99815.94;8195273;28;20098;-77
2022/10/05 05:32:13;;;;;;;28.17;14.48;;;;;;;7.57;100.00;99804.91;8198379;28;20053;-77
2022/10/05 05:36:17;;;;;;;34.83;15.70;;;;;;;7.53;100.00;99803.84;8202787;28;20044;-78
2022/10/05 05:40:24;;;;;;;27.65;13.63;;;;;;;7.51;100.00;99811.38;8198715;28;20066;-76
2022/10/05 05:44:32;;;;;;;38.35;13.10;;;;;;;7.51;100.00;99816.75;8208683;28;20532;-76
2022/10/05 05:48:39;;;;;;;29.67;13.68;;;;;;;7.50;100.00;99820.53;8264361;28;20146;-76
2022/10/05 05:52:44;;;;;;;31.40;14.32;;;;;;;7.49;100.00;99813.53;8264573;28;20058;-76
2022/10/05 05:57:21;;;;;;;33.65;13.25;;;;;;;7.50;100.00;99809.78;8265571;28;20129;-76
2022/10/05 06:01:30;;;;;;;27.92;14.50;;;;;;;7.54;100.00;99810.84;8263838;28;20498;-76
2022/10/05 06:05:46;;;;;;;26.88;14.15;;;;;;;7.63;100.00;99819.97;8260174;28;20046;-76
2022/10/05 06:09:54;;;;;;;32.63;16.30;;;;;;;7.73;100.00;99814.56;8260921;28;20049;-77
2022/10/05 06:14:00;;;;;;;36.20;15.00;;;;;;;7.86;100.00;99811.31;8260837;28;20059;-77
2022/10/05 06:18:07;;;;;;;34.17;15.52;;;;;;;8.00;100.00;99815.03;8257514;28;20058;-76
2022/10/05 06:22:29;;;;;;;26.30;13.90;;;;;;;8.16;100.00;99806.91;8260921;28;20050;-77
2022/10/05 06:26:52;;;;;;;33.60;14.57;;;;;;;8.29;100.00;99822.47;8261070;28;20052;-76
2022/10/05 06:31:03;;;;;;;42.33;16.15;;;;;;;8.39;100.00;99814.38;8256996;28;20065;-77
2022/10/05 06:35:11;;;;;;;37.30;15.25;;;;;;;8.46;100.00;99828.31;8263790;28;20197;-76
2022/10/05 06:39:15;;;;;;;34.13;14.75;;;;;;;8.59;100.00;99832.28;8260173;28;20053;-77
2022/10/05 06:43:29;;;;;;;43.45;15.80;;;;;;;8.71;100.00;99836.28;8261546;28;20129;-77
2022/10/05 06:48:24;;;;;;;38.45;15.25;;;;;;;8.87;100.00;99835.09;8262954;28;20042;-78
2022/10/05 06:52:33;;;;;;;28.38;13.75;;;;;;;9.09;100.00;99836.56;8278354;28;20577;-78
2022/10/05 06:56:43;;;;;;;37.20;17.35;;;;;;;9.29;99.86;99836.41;8268485;28;20050;-78
2022/10/05 07:00:53;;;;;;;33.03;14.45;;;;;;;9.46;99.60;99852.16;8266826;28;20042;-78
2022/10/05 07:04:57;;;;;;;26.38;10.65;;;;;;;9.58;99.19;99844.47;8277556;28;20060;-77
2022/10/05 07:09:16;;;;;;;21.70;11.43;;;;;;;9.69;99.13;99849.50;8284222;28;20060;-77
2022/10/05 07:13:23;;;;;;;21.95;10.75;;;;;;;9.81;98.97;99851.00;8293379;28;20075;-77
2022/10/05 07:17:53;;;;;;;19.83;10.63;;;;;;;9.92;98.83;99844.44;8274172;28;20054;-78
2022/10/05 07:22:03;;;;;;;24.50;11.48;;;;;;;10.02;98.47;99847.00;8253238;28;20054;-78
2022/10/05 07:26:09;;;;;;;38.15;12.00;;;;;;;10.10;98.57;99847.19;8278816;28;20124;-78
2022/10/05 07:30:12;;;;;;;30.67;14.15;;;;;;;10.23;98.37;99845.72;8274450;28;20445;-77
2022/10/05 07:34:37;;;;;;;30.13;14.35;;;;;;;10.41;98.36;99844.97;8292265;28;20100;-78
2022/10/05 07:38:58;;;;;;;21.23;12.15;;;;;;;10.63;97.87;99849.00;8287545;28;20050;-77
2022/10/05 07:43:05;;;;;;;18.63;9.88;;;;;;;10.78;97.52;99848.81;8279767;28;20100;-77
2022/10/05 07:47:06;;;;;;;14.90;8.05;;;;;;;10.94;97.17;99839.38;8280957;28;20093;-78
2022/10/05 07:51:39;;;;;;;18.30;8.73;;;;;;;11.09;96.73;99836.44;8291927;28;20049;-77
2022/10/05 07:55:46;;;;;;;17.77;8.98;;;;;;;11.25;96.27;99840.50;8291621;28;20055;-77
2022/10/05 08:00:00;;;;;;;13.27;7.70;;;;;;;11.43;96.19;99830.72;8288573;28;20069;-77
2022/10/05 08:04:23;;;;;;;18.30;8.48;;;;;;;11.63;95.87;99824.19;8280816;28;20050;-77
2022/10/05 08:08:38;;;;;;;21.25;7.75;;;;;;;11.74;95.25;99831.03;8234320;28;20418;-77
2022/10/05 08:13:01;;;;;;;9.60;6.07;;;;;;;11.82;94.05;99835.75;8272890;28;20050;-77
2022/10/05 08:17:11;;;;;;;10.73;5.82;;;;;;;11.90;93.08;99832.34;8296625;28;20440;-77
2022/10/05 08:21:15;;;;;;;11.20;5.25;;;;;;;11.93;92.81;99837.19;8295594;28;20410;-77
2022/10/05 08:25:32;;;;;;;17.25;5.70;;;;;;;11.99;92.97;99833.28;8295578;28;20042;-77
2022/10/05 08:29:37;;;;;;;11.60;5.47;;;;;;;12.07;92.56;99840.69;8294828;28;20056;-77
2022/10/05 08:33:48;;;;;;;14.55;5.22;;;;;;;12.25;91.68;99837.09;8285393;28;20050;-77
2022/10/05 08:37:50;;;;;;;14.50;5.78;;;;;;;12.48;91.33;99835.25;8263837;28;20549;-77
2022/10/05 08:42:03;;;;;;;21.30;6.07;;;;;;;12.75;90.45;99828.16;8284026;28;20042;-77
2022/10/05 08:46:30;;;;;;;18.77;5.85;;;;;;;12.99;89.93;99829.50;8298296;28;20056;-77
2022/10/05 08:50:49;;;;;;;10.25;5.10;;;;;;;13.31;88.66;99830.41;8296606;28;20057;-77
2022/10/05 08:55:05;;;;;;;7.82;4.32;;;;;;;13.56;87.46;99837.91;8302535;28;20123;-77
2022/10/05 08:59:05;;;;;;;9.55;4.85;;;;;;;13.72;85.58;99836.41;8302047;28;20054;-77
2022/10/05 09:03:25;;;;;;;13.02;4.10;;;;;;;13.83;85.21;99832.31;8301800;28;20057;-77
2022/10/05 09:07:41;;;;;;;;;;;;;;;13.95;85.97;99846.13;8302315;28;20151;-77
2022/10/05 09:11:43;;;;;;;11.35;4.60;;;;;;;14.00;84.97;99841.66;8290349;28;19922;-77
2022/10/05 09:16:14;;;;;;;10.70;4.60;;;;;;;14.01;85.24;99832.41;8299450;28;20054;-77
2022/10/05 09:20:34;;;;;;;11.00;4.10;;;;;;;14.03;85.22;99841.00;8301333;28;20581;-77
2022/10/05 09:24:56;;;;;;;8.52;4.40;;;;;;;14.02;85.06;99844.84;8301183;28;20407;-78
2022/10/05 09:29:06;;;;;;;11.27;3.95;;;;;;;14.02;85.25;99850.25;8283583;28;20058;-77
2022/10/05 09:33:34;;;;;;;17.92;4.80;;;;;;;14.01;85.58;99843.25;8286902;28;20112;-77
2022/10/05 09:38:00;;;;;;;14.00;4.73;;;;;;;14.02;85.49;99844.84;8300634;28;20050;-77
2022/10/05 09:42:11;;;;;;;11.48;4.15;;;;;;;14.07;85.28;99836.53;8290487;28;20061;-77
2022/10/05 09:46:23;;;;;;;10.88;3.60;;;;;;;14.13;85.04;99830.66;8276539;28;20401;-77
2022/10/05 09:50:43;;;;;;;11.40;3.92;;;;;;;14.27;85.26;99830.56;8290562;28;20046;-78
2022/10/05 09:55:04;;;;;;;17.83;3.80;;;;;;;14.44;84.22;99830.63;8294458;28;20061;-77
2022/10/05 09:59:26;;;;;;;8.63;4.18;;;;;;;14.54;83.89;99824.88;8274944;28;20398;-79
2022/10/05 10:04:12;;;;;;;8.20;4.10;;;;;;;14.66;83.68;99816.91;8275755;28;20470;-78
2022/10/05 10:08:31;;;;;;;8.52;3.33;;;;;;;14.76;83.13;99811.16;8168109;29;20059;-78
2022/10/05 10:12:50;;;;;;;8.18;3.53;;;;;;;14.88;82.07;99804.28;8190716;29;20051;-78
2022/10/05 10:17:15;;;;;;;8.93;3.40;;;;;;;14.99;81.90;99802.84;8186395;29;20141;-78
2022/10/05 10:21:28;;;;;;;6.43;3.28;;;;;;;15.16;81.50;99802.84;8183466;29;20047;-77
2022/10/05 10:25:40;;;;;;;9.32;3.22;;;;;;;15.27;80.38;99795.97;8198717;29;20099;-78
2022/10/05 10:29:44;;;;;;;6.22;3.25;;;;;;;15.43;80.06;99801.69;8198261;29;20051;-78
2022/10/05 10:34:05;;;;;;;10.40;2.83;;;;;;;15.51;79.48;99788.06;8198679;29;20146;-77
2022/10/05 10:38:28;;;;;;;14.15;3.30;;;;;;;15.58;79.35;99802.00;8248740;28;20096;-78
2022/10/05 10:42:38;;;;;;;12.77;2.92;;;;;;;15.66;79.63;99805.00;8297363;28;20128;-79
2022/10/05 10:47:07;;;;;;;9.40;3.50;;;;;;;15.73;78.97;99795.22;8298126;28;20075;-78
2022/10/05 10:51:15;;;;;;;14.35;2.67;;;;;;;15.88;78.76;99802.03;8279776;28;20050;-77
2022/10/05 10:55:26;;;;;;;10.30;3.00;;;;;;;16.07;77.83;99799.72;8284341;28;20520;-78
2022/10/05 11:00:04;;;;;;;11.82;2.78;;;;;;;16.35;76.33;99798.13;8289520;28;20391;-78
2022/10/05 11:04:24;;;;;;;8.07;2.70;;;;;;;16.50;76.50;99801.41;8292899;28;20057;-78
2022/10/05 11:08:40;;;;;;;7.22;2.88;;;;;;;16.48;75.81;99788.91;8279137;28;20069;-79
2022/10/05 11:12:50;;;;;;;8.10;2.38;;;;;;;16.46;76.30;99791.16;8272114;28;20522;-78
2022/10/05 11:17:07;;;;;;;13.60;2.95;;;;;;;16.79;75.89;99793.19;8297712;28;20112;-79
2022/10/05 11:21:19;;;;;;;7.22;2.50;;;;;;;17.09;74.06;99786.50;8296316;28;20074;-79
2022/10/05 11:25:57;;;;;;;9.93;2.70;;;;;;;17.24;73.69;99777.69;8297632;28;20057;-79
2022/10/05 11:30:26;;;;;;;8.48;2.90;;;;;;;17.37;72.88;99764.09;8296932;28;20081;-78
2022/10/05 11:34:42;;;;;;;7.27;2.87;;;;;;;17.52;72.25;99766.16;8297196;28;20416;-79
2022/10/05 11:39:02;;;;;;;5.47;2.22;;;;;;;17.61;71.44;99769.63;8295817;28;20049;-79
2022/10/05 11:43:31;;;;;;;8.02;2.53;;;;;;;17.81;71.40;99757.84;8296871;28;20481;-78
2022/10/05 11:47:36;;;;;;;8.27;2.40;;;;;;;18.04;70.90;99750.75;8296897;28;20042;-77
2022/10/05 11:51:52;;;;;;;6.63;2.25;;;;;;;18.37;69.69;99736.13;8282950;28;20054;-78
2022/10/05 11:56:21;;;;;;;12.88;2.42;;;;;;;18.67;68.93;99731.97;8296988;28;20046;-80
2022/10/05 12:00:39;;;;;;;6.43;2.60;;;;;;;18.65;69.31;99731.56;8296837;28;20042;-78
2022/10/05 12:05:03;;;;;;;7.47;2.13;;;;;;;18.54;69.57;99722.22;8297063;28;20311;-79
2022/10/05 12:09:32;;;;;;;9.05;2.30;;;;;;;18.36;69.22;99718.13;8279337;28;20038;-79
2022/10/05 12:13:57;;;;;;;4.72;2.20;;;;;;;18.07;67.90;99711.81;8276514;28;20207;-79
2022/10/05 12:18:07;;;;;;;6.00;1.90;;;;;;;17.89;69.22;99710.47;8289655;28;20133;-79
2022/10/05 12:22:22;;;;;;;10.45;2.50;;;;;;;17.75;70.13;99714.69;8293966;28;20087;-78
2022/10/05 12:26:27;;;;;;;7.18;2.40;;;;;;;17.75;69.70;99710.00;8252120;28;20132;-78
2022/10/05 12:30:31;;;;;;;4.97;2.10;;;;;;;17.78;69.14;99714.78;8302422;28;20491;-78
2022/10/05 12:34:32;;;;;;;6.93;2.03;;;;;;;17.76;68.52;99706.16;8301465;28;20467;-78
2022/10/05 12:38:57;;;;;;;8.13;2.10;;;;;;;17.80;67.93;99701.59;8298183;28;20081;-78
2022/10/05 12:43:17;;;;;;;4.22;1.75;;;;;;;17.89;67.02;99699.53;8292867;28;20054;-79
2022/10/05 12:47:40;;;;;;;5.50;2.30;;;;;;;18.23;64.78;99697.44;8265393;28;20050;-79
2022/10/05 12:51:55;;;;;;;3.53;2.15;;;;;;;18.43;63.28;99701.94;8276807;28;20109;-78
2022/10/05 12:56:35;;;;;;;5.70;2.22;;;;;;;18.53;63.47;99704.19;8311505;28;20048;-78
2022/10/05 13:00:38;;;;;;;;;;;;;;;18.46;63.63;99701.25;8267350;28;20050;-79
2022/10/05 13:05:07;;;;;;;7.20;2.60;;;;;;;18.35;63.52;99705.59;8300520;28;19975;-78
2022/10/05 13:09:24;;;;;;;3.00;1.80;;;;;;;18.30;64.37;99697.63;8276593;28;20065;-78
2022/10/05 13:13:38;;;;;;;5.10;2.70;;;;;;;18.44;64.84;99698.06;8294583;28;20053;-78
2022/10/05 13:17:44;;;;;;;4.50;2.00;;;;;;;18.74;63.12;99691.16;8270880;28;20053;-78
2022/10/05 13:21:48;;;;;;;3.22;1.73;;;;;;;18.92;62.84;99676.03;8269566;28;20421;-79
2022/10/05 13:26:17;;;;;;;15.00;6.40;;;;;;;18.75;62.98;99676.34;8283838;28;20048;-79
2022/10/05 13:30:20;;;;;;;;;;;;;;;18.58;63.81;99676.63;8274456;28;20050;-79
2022/10/05 13:34:30;;;;;;;4.05;1.77;;;;;;;18.41;63.19;99676.88;8279844;28;19922;-79
2022/10/05 13:38:33;;;;;;;6.57;2.03;;;;;;;18.34;64.03;99676.69;8276144;28;20053;-78
2022/10/05 13:42:59;;;;;;;4.85;1.70;;;;;;;18.34;64.40;99687.63;8282239;28;20551;-79
2022/10/05 13:47:11;;;;;;;5.82;1.70;;;;;;;18.35;64.01;99679.06;8258946;28;20078;-79
2022/10/05 13:51:24;;;;;;;5.88;1.80;;;;;;;18.31;63.41;99677.38;8267776;28;20525;-78
2022/10/05 13:55:53;;;;;;;6.40;1.90;;;;;;;18.23;64.39;99681.03;8250001;28;20372;-79
2022/10/05 14:00:13;;;;;;;6.53;1.77;;;;;;;18.11;64.27;99674.47;8274377;28;20046;-79
2022/10/05 14:04:23;;;;;;;3.88;1.70;;;;;;;18.08;65.33;99675.13;8267646;28;20057;-79
2022/10/05 14:08:27;;;;;;;5.70;2.03;;;;;;;18.18;64.35;99667.63;8266172;28;20100;-78
2022/10/05 14:12:37;;;;;;;7.05;2.17;;;;;;;18.24;64.97;99666.25;8280787;28;20486;-78
2022/10/05 14:16:51;;;;;;;3.03;1.80;;;;;;;18.22;64.79;99657.56;8273093;28;20062;-79
2022/10/05 14:21:22;;;;;;;4.82;2.10;;;;;;;18.20;64.73;99652.44;8248916;28;20065;-78
2022/10/05 14:25:24;;;;;;;4.18;1.90;;;;;;;18.15;65.27;99648.00;8166873;29;20516;-79
2022/10/05 14:29:36;;;;;;;4.60;2.00;;;;;;;18.08;65.87;99636.88;8134644;29;20060;-78
2022/10/05 14:33:37;;;;;;;5.88;2.72;;;;;;;17.97;66.31;99630.31;8198586;29;20061;-78
2022/10/05 14:37:42;;;;;;;7.13;2.03;;;;;;;17.92;66.55;99627.81;8198642;29;20051;-78
2022/10/05 14:41:48;;;;;;;4.15;2.15;;;;;;;17.80;67.17;99619.63;8195149;29;20121;-77
2022/10/05 14:45:54;;;;;;;5.80;2.50;;;;;;;17.68;67.69;99606.78;8177640;29;20188;-79
2022/10/05 14:50:28;;;;;;;5.80;2.20;;;;;;;17.56;67.62;99603.22;8194532;28;20554;-80
2022/10/05 14:54:58;;;;;;;9.77;2.95;;;;;;;17.47;67.79;99610.75;8173392;28;20059;-80
2022/10/05 14:59:22;;;;;;;6.38;2.70;;;;;;;17.39;67.69;99619.88;8144764;29;20056;-79
2022/10/05 15:03:32;;;;;;;10.20;2.63;;;;;;;17.30;67.73;99617.22;8274060;28;20060;-79
2022/10/05 15:07:34;;;;;;;8.75;3.20;;;;;;;17.28;68.08;99617.59;8271317;28;20465;-79
2022/10/05 15:11:49;;;;;;;10.52;3.20;;;;;;;17.31;68.40;99614.16;8236264;28;20045;-79
2022/10/05 15:16:02;;;;;;;17.70;3.38;;;;;;;17.30;68.09;99612.56;8268032;28;20393;-81
2022/10/05 15:20:23;;;;;;;7.88;2.72;;;;;;;17.29;68.09;99600.03;8268981;28;20493;-80
2022/10/05 15:25:04;;;;;;;5.90;3.03;;;;;;;17.30;67.79;99590.72;8265642;28;20469;-81
2022/10/05 15:29:05;;;;;;;7.47;4.28;;;;;;;17.27;67.86;99591.41;8264384;28;20137;-79
2022/10/05 15:33:14;;;;;;;11.93;4.72;;;;;;;17.25;67.79;99593.69;8272415;28;20054;-80
2022/10/05 15:37:23;;;;;;;12.50;5.30;;;;;;;17.22;67.82;99588.91;8261342;28;20145;-78
2022/10/05 15:41:37;;;;;;;10.32;4.82;;;;;;;17.14;68.26;99594.47;8261121;28;20383;-79
2022/10/05 15:45:47;;;;;;;11.77;4.13;;;;;;;17.02;68.66;99589.03;8255579;28;20042;-81
2022/10/05 15:50:06;;;;;;;11.15;4.38;;;;;;;16.85;68.97;99603.66;8277016;28;20058;-81
2022/10/05 15:58:44;;;;;;;10.13;3.33;;;;;;;16.61;69.09;99584.47;8290761;28;20066;-80
2022/10/05 16:03:04;;;;;;;4.68;2.85;;;;;;;16.53;69.20;99604.44;8300904;28;20461;-81
2022/10/05 16:11:51;;;;;;;15.93;4.35;;;;;;;16.23;70.22;99590.91;8294480;28;20038;-81
2022/10/05 16:16:19;;;;;;;12.18;4.68;;;;;;;16.09;70.57;99595.03;8296384;28;20050;-81
2022/10/05 16:20:20;;;;;;;16.40;4.63;;;;;;;15.98;71.01;99586.47;8290883;28;20125;-81
2022/10/05 16:25:03;;;;;;;9.00;3.60;;;;;;;15.84;71.13;99597.66;8302988;28;20429;-80
2022/10/05 16:29:11;;;;;;;8.88;4.30;;;;;;;15.73;71.33;99598.34;8245804;28;20205;-80
2022/10/05 16:33:31;;;;;;;12.13;5.13;;;;;;;15.60;71.22;99595.53;8253655;28;20065;-81
2022/10/05 16:37:51;;;;;;;13.35;4.35;;;;;;;15.50;71.46;99595.91;8217314;28;20062;-81
2022/10/05 16:42:00;;;;;;;15.68;4.68;;;;;;;15.39;71.86;99594.69;8252294;28;20046;-81
2022/10/05 16:46:13;;;;;;;16.00;5.60;;;;;;;15.26;72.27;99595.72;8245010;28;20054;-81
2022/10/05 16:50:36;;;;;;;12.10;5.38;;;;;;;15.15;72.60;99605.38;8222110;28;20105;-81
2022/10/05 16:54:41;;;;;;;11.68;5.38;;;;;;;15.08;72.58;99599.63;8238928;28;20079;-81
2022/10/05 16:59:34;;;;;;;13.20;4.65;;;;;;;15.02;72.71;99606.38;8206733;28;20042;-81
2022/10/05 17:03:55;;;;;;;12.10;5.63;;;;;;;14.94;72.87;99605.28;8247494;28;20051;-80
2022/10/05 17:08:24;;;;;;;15.65;7.75;;;;;;;14.93;72.94;99608.31;8262873;28;20050;-81
2022/10/05 17:12:32;;;;;;;;;;;;;;;14.86;73.15;99608.03;8268327;28;20038;-80
2022/10/05 17:16:41;;;;;;;12.00;6.00;;;;;;;14.76;73.32;99615.41;8269035;28;19929;-81
2022/10/05 17:20:48;;;;;;;17.50;5.82;;;;;;;14.72;73.42;99603.59;8268832;28;20038;-81
2022/10/05 17:25:21;;;;;;;16.20;5.93;;;;;;;14.66;73.86;99606.78;8268517;28;20034;-81
2022/10/05 17:29:25;;;;;;;16.42;7.40;;;;;;;14.60;73.77;99600.72;8265891;28;20148;-81
2022/10/05 17:33:29;;;;;;;11.68;6.72;;;;;;;14.53;74.05;99603.16;8271063;28;20077;-80
2022/10/05 17:37:34;;;;;;;14.27;6.40;;;;;;;14.45;74.36;99603.97;8269639;28;20065;-83
2022/10/05 17:41:38;;;;;;;11.85;5.70;;;;;;;14.39;74.31;99605.25;8276940;28;20042;-80
2022/10/05 17:45:46;;;;;;;13.02;5.25;;;;;;;14.37;74.12;99596.63;8231526;28;20043;-80
2022/10/05 17:58:53;;;;;;;13.93;6.38;;;;;;;14.21;74.69;99587.34;8267657;28;20054;-80
2022/10/05 18:02:57;;;;;;;21.75;7.97;;;;;;;14.14;74.99;99592.44;8274510;28;20702;-81
2022/10/05 18:07:06;;;;;;;15.60;7.72;;;;;;;14.08;75.08;99588.28;8264337;28;20078;-81
2022/10/05 18:11:15;;;;;;;13.52;7.47;;;;;;;14.00;75.66;99591.81;8265061;28;20151;-81
2022/10/05 18:15:20;;;;;;;16.75;6.97;;;;;;;13.90;76.18;99592.94;8277638;28;20061;-80
2022/10/05 18:19:22;;;;;;;14.85;6.90;;;;;;;13.80;76.37;99588.59;8283196;28;20042;-80
2022/10/05 18:23:28;;;;;;;14.88;7.25;;;;;;;13.70;76.79;99599.75;8279582;28;20046;-80
2022/10/05 18:27:34;;;;;;;16.38;6.35;;;;;;;13.66;76.78;99598.81;8265123;28;20061;-80
2022/10/05 18:31:48;;;;;;;14.27;6.72;;;;;;;13.60;77.01;99596.56;8258082;28;20498;-81
2022/10/05 18:36:02;;;;;;;13.25;7.20;;;;;;;13.54;77.26;99601.31;8274751;28;20125;-80
2022/10/05 18:40:07;;;;;;;19.98;7.38;;;;;;;13.52;77.36;99598.16;8260542;28;20081;-80
2022/10/05 18:44:18;;;;;;;14.93;8.25;;;;;;;13.46;77.45;99593.97;8259336;28;20078;-81
2022/10/05 18:48:41;;;;;;;16.80;7.50;;;;;;;13.36;77.81;99597.00;8256606;28;20525;-80
2022/10/05 18:52:52;;;;;;;19.77;8.00;;;;;;;13.30;78.20;99592.81;8254116;28;20039;-80
2022/10/05 18:56:53;;;;;;;14.60;7.47;;;;;;;13.25;78.33;99590.25;8245677;28;20062;-80
2022/10/05 19:01:08;;;;;;;16.45;8.10;;;;;;;13.21;78.57;99592.00;8237927;28;20092;-80
2022/10/05 19:05:36;;;;;;;17.42;7.78;;;;;;;13.14;78.89;99591.66;8219233;28;20046;-80
2022/10/05 19:09:40;;;;;;;32.83;12.63;;;;;;;13.06;79.14;99591.25;8239491;28;20243;-80
2022/10/05 19:14:04;;;;;;;19.45;9.05;;;;;;;12.99;79.37;99596.34;8257234;28;20158;-81
2022/10/05 19:18:08;;;;;;;23.65;9.90;;;;;;;12.96;79.62;99591.53;8250803;28;20081;-81
2022/10/05 19:22:17;;;;;;;18.00;8.95;;;;;;;12.92;79.83;99600.59;8252523;28;20070;-80
2022/10/05 19:26:27;;;;;;;16.05;8.73;;;;;;;12.88;79.94;99595.00;8247274;28;20559;-81
2022/10/05 19:30:44;;;;;;;25.08;9.75;;;;;;;12.84;80.27;99594.06;8244994;28;20042;-81
2022/10/05 19:35:04;;;;;;;18.20;8.60;;;;;;;12.80;80.63;99598.47;8238775;28;20065;-81
2022/10/05 19:39:06;;;;;;;26.00;8.93;;;;;;;12.77;80.71;99601.81;8258083;28;20533;-81
2022/10/05 19:43:27;;;;;;;17.92;8.88;;;;;;;12.73;81.12;99614.41;8242270;28;20047;-80
2022/10/05 19:48:07;;;;;;;17.38;8.52;;;;;;;12.69;81.33;99607.97;8237567;28;20137;-81
2022/10/05 19:52:24;;;;;;;18.77;8.73;;;;;;;12.65;81.39;99609.72;8212832;28;20049;-81
2022/10/05 19:56:28;;;;;;;18.02;8.45;;;;;;;12.60;81.91;99609.84;8211787;28;20054;-82
2022/10/05 20:00:33;;;;;;;14.30;8.48;;;;;;;12.58;82.02;99612.06;8258152;28;20054;-81
2022/10/05 20:04:40;;;;;;;19.02;8.80;;;;;;;12.56;82.24;99614.28;8257442;28;20186;-81
2022/10/05 20:08:45;;;;;;;22.50;9.82;;;;;;;12.56;82.63;99625.13;8259651;28;20042;-80